Time;durP1;ratioP1;P1;durP2;ratioP2;P2;SDS_P1;SDS_P2;PMS_P1;PMS_P2;Temp;Humidity;BMP_temperature;BMP_pressure;BME280_temperature;BME280_humidity;BME280_pressure;Samples;Min_cycle;Max_cycle;Signal;HPM_P1;HPM_P2
2023/12/05 00:02:24;;;;;;;21.52;7.18;;;;;;;;;;4886439;29;20091;-77
2023/12/05 00:04:53;;;;;;;14.20;6.70;;;;;;;;;;4888017;29;20057;-77
2023/12/05 00:07:23;;;;;;;19.63;8.57;;;;;;;;;;4887178;29;20062;-76
2023/12/05 00:09:52;;;;;;;12.93;6.20;;;;;;;;;;4894050;29;20079;-77
2023/12/05 00:12:21;;;;;;;26.83;11.32;;;;;;;;;;4885520;29;20058;-77
2023/12/05 00:14:51;;;;;;;24.02;10.50;;;;;;;;;;4885386;29;20074;-77
2023/12/05 00:17:20;;;;;;;20.92;7.20;;;;;;;;;;4884154;29;20150;-77
2023/12/05 00:19:48;;;;;;;23.40;9.77;;;;;;;;;;4885100;29;20103;-77
2023/12/05 00:22:17;;;;;;;27.25;10.35;;;;;;;;;;4901129;29;20059;-76
2023/12/05 00:24:46;;;;;;;24.20;8.93;;;;;;;;;;4900875;29;20052;-76
2023/12/05 00:27:15;;;;;;;4.05;3.28;;;;;;;;;;4885405;29;20052;-76
2023/12/05 00:29:43;;;;;;;19.00;7.72;;;;;;;;;;4884823;29;20072;-76
2023/12/05 00:32:14;;;;;;;23.52;8.90;;;;;;;;;;4883472;29;20063;-77
2023/12/05 00:34:44;;;;;;;30.77;11.45;;;;;;;;;;4887955;29;20056;-77
2023/12/05 00:37:13;;;;;;;30.45;12.32;;;;;;;;;;4886530;29;20164;-77
2023/12/05 00:39:42;;;;;;;22.00;8.75;;;;;;;;;;4884086;29;20191;-76
2023/12/05 00:42:10;;;;;;;27.85;11.30;;;;;;;;;;4884064;29;20060;-76
2023/12/05 00:44:39;;;;;;;23.40;9.65;;;;;;;;;;4886094;29;20060;-77
2023/12/05 00:47:08;;;;;;;27.77;10.35;;;;;;;;;;4890484;29;20579;-77
2023/12/05 00:49:38;;;;;;;26.58;11.02;;;;;;;;;;4901676;29;20055;-77
2023/12/05 00:52:08;;;;;;;27.73;9.63;;;;;;;;;;4891691;29;20048;-76
2023/12/05 00:54:36;;;;;;;25.38;10.07;;;;;;;;;;4889037;29;20527;-76
2023/12/05 00:57:05;;;;;;;24.35;7.85;;;;;;;;;;4883391;29;20063;-76
2023/12/05 00:59:34;;;;;;;25.17;9.60;;;;;;;;;;4883492;29;22509;-76
2023/12/05 01:02:04;;;;;;;23.63;8.63;;;;;;;;;;4886633;29;20425;-76
2023/12/05 01:04:33;;;;;;;23.73;8.55;;;;;;;;;;4885267;29;20546;-76
2023/12/05 01:07:04;;;;;;;25.50;10.38;;;;;;;;;;4885068;29;20056;-76
2023/12/05 01:09:33;;;;;;;28.48;9.65;;;;;;;;;;4907435;29;20054;-77
2023/12/05 01:12:02;;;;;;;25.63;9.35;;;;;;;;;;4885711;29;20052;-76
2023/12/05 01:14:31;;;;;;;23.45;8.90;;;;;;;;;;4885162;29;20056;-77
2023/12/05 01:17:00;;;;;;;21.95;9.40;;;;;;;;;;4872766;29;20063;-77
2023/12/05 01:19:28;;;;;;;25.20;9.82;;;;;;;;;;4894225;29;20569;-77
2023/12/05 01:21:57;;;;;;;15.45;6.10;;;;;;;;;;4885735;29;20420;-77
2023/12/05 01:24:27;;;;;;;24.88;8.48;;;;;;;;;;4884108;29;20064;-77
2023/12/05 01:26:56;;;;;;;23.58;9.85;;;;;;;;;;4892605;29;20115;-76
2023/12/05 01:29:25;;;;;;;25.90;10.15;;;;;;;;;;4885830;29;20559;-76
2023/12/05 01:31:54;;;;;;;20.73;8.30;;;;;;;;;;4885534;29;22579;-77
2023/12/05 01:34:22;;;;;;;9.90;4.03;;;;;;;;;;4878272;29;20103;-77
2023/12/05 01:36:51;;;;;;;24.20;9.75;;;;;;;;;;4884900;29;20044;-78
2023/12/05 01:39:20;;;;;;;21.27;7.45;;;;;;;;;;4891671;29;22494;-76
2023/12/05 01:41:50;;;;;;;27.05;9.82;;;;;;;;;;4883505;29;20155;-76
2023/12/05 01:44:19;;;;;;;23.70;9.50;;;;;;;;;;4883823;29;20070;-77
2023/12/05 01:46:47;;;;;;;23.13;9.52;;;;;;;;;;4882987;29;20064;-77
2023/12/05 01:49:18;;;;;;;29.17;9.88;;;;;;;;;;4878148;29;20700;-77
2023/12/05 01:51:57;;;;;;;24.35;8.60;;;;;;;;;;4886669;29;22509;-78
2023/12/05 01:54:26;;;;;;;15.63;5.07;;;;;;;;;;4883944;29;20155;-76
2023/12/05 01:56:58;;;;;;;20.67;7.80;;;;;;;;;;4883979;29;20047;-76
2023/12/05 01:59:27;;;;;;;25.50;8.82;;;;;;;;;;4886601;29;20040;-76
2023/12/05 02:01:56;;;;;;;23.52;9.18;;;;;;;;;;4883987;29;20075;-78
2023/12/05 02:04:25;;;;;;;24.92;9.95;;;;;;;;;;4884278;29;20063;-77
2023/12/05 02:06:54;;;;;;;11.52;4.93;;;;;;;;;;4882651;29;20056;-77
2023/12/05 02:09:23;;;;;;;15.00;6.60;;;;;;;;;;4884496;29;20444;-77
2023/12/05 02:11:52;;;;;;;25.73;10.00;;;;;;;;;;4884269;29;20064;-78
2023/12/05 02:14:22;;;;;;;25.65;10.95;;;;;;;;;;4882184;29;20536;-76
2023/12/05 02:16:53;;;;;;;23.65;9.13;;;;;;;;;;4891317;29;20052;-76
2023/12/05 02:19:33;;;;;;;23.95;8.65;;;;;;;;;;4890067;29;22711;-75
2023/12/05 02:22:05;;;;;;;26.90;10.05;;;;;;;;;;4883463;29;20071;-78
2023/12/05 02:24:40;;;;;;;22.75;10.10;;;;;;;;;;4881430;29;20052;-77
2023/12/05 02:27:12;;;;;;;25.45;10.30;;;;;;;;;;4890107;29;20067;-77
2023/12/05 02:29:49;;;;;;;26.48;10.57;;;;;;;;;;4874730;29;20067;-78
2023/12/05 02:32:18;;;;;;;21.42;7.95;;;;;;;;;;4893104;29;20052;-76
2023/12/05 02:34:46;;;;;;;22.92;8.93;;;;;;;;;;4891734;29;20059;-77
2023/12/05 02:37:17;;;;;;;25.42;10.40;;;;;;;;;;4883893;29;20059;-77
2023/12/05 02:39:49;;;;;;;11.45;5.40;;;;;;;;;;4890019;29;20496;-76
2023/12/05 02:42:20;;;;;;;23.55;7.95;;;;;;;;;;4888831;29;20183;-77
2023/12/05 02:44:51;;;;;;;19.23;7.45;;;;;;;;;;4882010;29;20048;-77
2023/12/05 02:47:21;;;;;;;24.42;9.98;;;;;;;;;;4881466;29;20056;-77
2023/12/05 02:49:51;;;;;;;4.72;2.92;;;;;;;;;;4888158;29;20056;-77
2023/12/05 02:52:21;;;;;;;22.30;8.95;;;;;;;;;;4897416;29;20048;-76
2023/12/05 02:54:50;;;;;;;9.15;3.60;;;;;;;;;;4897803;29;20179;-77
2023/12/05 02:57:19;;;;;;;27.60;11.32;;;;;;;;;;4883682;29;20066;-77
2023/12/05 02:59:47;;;;;;;21.33;8.00;;;;;;;;;;4896363;29;22438;-77
2023/12/05 03:02:18;;;;;;;14.15;6.00;;;;;;;;;;4881879;29;20052;-76
2023/12/05 03:04:46;;;;;;;14.95;6.07;;;;;;;;;;4883127;29;20056;-76
2023/12/05 03:07:15;;;;;;;24.45;10.15;;;;;;;;;;4893815;29;20052;-77
2023/12/05 03:09:46;;;;;;;21.45;9.65;;;;;;;;;;4884297;29;20131;-77
2023/12/05 03:12:14;;;;;;;28.88;11.05;;;;;;;;;;4895061;29;20051;-77
2023/12/05 03:14:43;;;;;;;28.00;10.30;;;;;;;;;;4893236;29;20066;-77
2023/12/05 03:17:12;;;;;;;25.15;10.65;;;;;;;;;;4880663;29;20272;-77
2023/12/05 03:19:42;;;;;;;29.63;11.55;;;;;;;;;;4889107;29;22369;-77
2023/12/05 03:22:11;;;;;;;24.40;9.07;;;;;;;;;;4907688;29;20036;-77
2023/12/05 03:24:40;;;;;;;30.23;10.25;;;;;;;;;;4920666;29;20162;-77
2023/12/05 03:27:08;;;;;;;33.35;12.98;;;;;;;;;;4915504;29;20052;-75
2023/12/05 03:29:37;;;;;;;26.27;9.73;;;;;;;;;;4920845;28;20052;-79
2023/12/05 03:32:07;;;;;;;16.23;6.75;;;;;;;;;;4932873;29;20063;-77
2023/12/05 03:34:35;;;;;;;37.42;12.95;;;;;;;;;;4918236;29;20040;-76
2023/12/05 03:37:06;;;;;;;34.05;12.80;;;;;;;;;;4915886;28;20036;-78
2023/12/05 03:39:35;;;;;;;35.85;11.75;;;;;;;;;;4927643;28;20123;-77
2023/12/05 03:42:04;;;;;;;14.45;7.00;;;;;;;;;;4938594;29;20079;-77
2023/12/05 03:44:33;;;;;;;10.30;5.85;;;;;;;;;;4911945;29;20060;-77
2023/12/05 03:47:02;;;;;;;28.08;12.05;;;;;;;;;;4916514;29;20048;-77
2023/12/05 03:49:31;;;;;;;27.33;11.68;;;;;;;;;;4919596;29;20741;-77
2023/12/05 03:52:02;;;;;;;28.70;11.30;;;;;;;;;;4918618;28;20068;-77
2023/12/05 03:54:32;;;;;;;25.75;10.90;;;;;;;;;;4925573;29;20043;-77
2023/12/05 03:57:01;;;;;;;12.70;5.32;;;;;;;;;;4934625;28;20044;-79
2023/12/05 03:59:30;;;;;;;16.98;7.88;;;;;;;;;;4929941;29;20073;-77
2023/12/05 04:02:00;;;;;;;24.27;11.13;;;;;;;;;;4906299;29;20044;-77
2023/12/05 04:04:29;;;;;;;27.52;11.57;;;;;;;;;;4904573;29;20055;-77
2023/12/05 04:06:58;;;;;;;19.60;8.55;;;;;;;;;;4921925;28;20146;-76
2023/12/05 04:09:27;;;;;;;31.65;12.02;;;;;;;;;;4915580;29;20063;-76
2023/12/05 04:11:59;;;;;;;15.80;6.47;;;;;;;;;;4936593;29;22029;-77
2023/12/05 04:14:28;;;;;;;34.75;13.57;;;;;;;;;;4918105;29;20032;-78
2023/12/05 04:16:57;;;;;;;35.42;13.70;;;;;;;;;;4923939;29;20112;-77
2023/12/05 04:19:26;;;;;;;31.60;12.85;;;;;;;;;;4918838;29;20052;-76
2023/12/05 04:21:55;;;;;;;34.05;12.82;;;;;;;;;;4915652;29;20056;-78
2023/12/05 04:24:25;;;;;;;27.65;11.88;;;;;;;;;;4925590;28;20048;-77
2023/12/05 04:26:54;;;;;;;26.63;9.40;;;;;;;;;;4919738;29;20056;-77
2023/12/05 04:29:26;;;;;;;16.30;7.28;;;;;;;;;;4905407;29;20052;-77
2023/12/05 04:31:55;;;;;;;10.82;4.55;;;;;;;;;;4896388;29;20988;-77
2023/12/05 04:34:24;;;;;;;31.30;11.95;;;;;;;;;;4909777;29;20052;-77
2023/12/05 04:36:53;;;;;;;34.97;13.20;;;;;;;;;;4885609;29;20109;-77
2023/12/05 04:39:22;;;;;;;33.35;12.63;;;;;;;;;;4897510;29;20550;-77
2023/12/05 04:41:51;;;;;;;32.40;13.35;;;;;;;;;;4910373;29;20058;-76
2023/12/05 04:44:21;;;;;;;32.05;12.02;;;;;;;;;;4885131;29;20228;-78
2023/12/05 04:46:51;;;;;;;30.35;9.90;;;;;;;;;;4884485;29;20094;-76
2023/12/05 04:49:20;;;;;;;38.45;13.27;;;;;;;;;;4886155;29;20159;-77
2023/12/05 04:51:48;;;;;;;21.58;9.18;;;;;;;;;;4886709;29;20044;-77
2023/12/05 04:54:17;;;;;;;29.33;11.15;;;;;;;;;;4895660;29;20836;-78
2023/12/05 04:56:46;;;;;;;30.73;11.77;;;;;;;;;;4887889;29;20190;-77
2023/12/05 04:59:14;;;;;;;18.08;7.32;;;;;;;;;;4892977;29;20056;-76
2023/12/05 05:01:43;;;;;;;36.13;13.45;;;;;;;;;;4884513;29;20308;-77
2023/12/05 05:04:13;;;;;;;24.45;10.05;;;;;;;;;;4898037;29;20052;-77
2023/12/05 05:06:42;;;;;;;25.10;9.63;;;;;;;;;;4894005;29;20060;-77
2023/12/05 05:09:11;;;;;;;39.33;13.80;;;;;;;;;;4907579;29;20056;-77
2023/12/05 05:11:40;;;;;;;28.90;11.88;;;;;;;;;;4882610;29;20056;-77
2023/12/05 05:14:08;;;;;;;33.53;14.55;;;;;;;;;;4884615;29;20056;-77
2023/12/05 05:16:37;;;;;;;24.50;10.05;;;;;;;;;;4886777;29;20153;-77
2023/12/05 05:19:06;;;;;;;32.70;12.93;;;;;;;;;;4882390;29;20052;-77
2023/12/05 05:21:36;;;;;;;36.08;13.68;;;;;;;;;;4879221;29;20063;-76
2023/12/05 05:24:05;;;;;;;33.88;13.65;;;;;;;;;;4883299;29;22655;-77
2023/12/05 05:26:34;;;;;;;33.08;13.00;;;;;;;;;;4891346;29;20056;-76
2023/12/05 05:29:03;;;;;;;31.67;13.35;;;;;;;;;;4880798;29;20764;-77
2023/12/05 05:31:35;;;;;;;42.90;15.57;;;;;;;;;;4886143;29;20769;-76
2023/12/05 05:34:04;;;;;;;32.10;12.48;;;;;;;;;;4913004;29;20100;-77
2023/12/05 05:36:33;;;;;;;21.33;9.18;;;;;;;;;;4894559;29;20527;-76
2023/12/05 05:39:04;;;;;;;32.53;12.48;;;;;;;;;;4883243;29;22618;-78
2023/12/05 05:41:34;;;;;;;17.02;8.63;;;;;;;;;;4896004;29;22053;-78
2023/12/05 05:44:03;;;;;;;30.98;12.73;;;;;;;;;;4919464;29;20146;-77
2023/12/05 05:46:32;;;;;;;30.50;12.52;;;;;;;;;;4929236;28;21241;-77
2023/12/05 05:49:01;;;;;;;30.73;10.35;;;;;;;;;;4910511;29;20108;-77
2023/12/05 05:51:31;;;;;;;31.40;12.75;;;;;;;;;;4902316;29;20117;-77
2023/12/05 05:54:00;;;;;;;27.73;12.15;;;;;;;;;;4919544;29;20116;-76
2023/12/05 05:56:31;;;;;;;33.60;13.38;;;;;;;;;;4913438;28;20080;-79
2023/12/05 05:59:00;;;;;;;31.55;12.52;;;;;;;;;;4914449;28;20052;-77
2023/12/05 06:01:29;;;;;;;33.33;13.30;;;;;;;;;;4912654;29;20163;-77
2023/12/05 06:03:58;;;;;;;27.48;12.45;;;;;;;;;;4904305;29;20044;-77
2023/12/05 06:06:27;;;;;;;31.75;12.05;;;;;;;;;;4915198;29;20040;-78
2023/12/05 06:08:56;;;;;;;37.03;12.02;;;;;;;;;;4915444;29;20044;-76
2023/12/05 06:11:26;;;;;;;31.38;13.65;;;;;;;;;;4914379;29;20123;-77
2023/12/05 06:13:56;;;;;;;36.97;14.52;;;;;;;;;;4922562;29;20095;-80
2023/12/05 06:16:26;;;;;;;38.75;13.13;;;;;;;;;;4913749;29;20048;-76
2023/12/05 06:18:55;;;;;;;27.38;11.68;;;;;;;;;;4934206;29;20038;-77
2023/12/05 06:21:24;;;;;;;35.45;13.35;;;;;;;;;;4914733;29;20036;-77
2023/12/05 06:23:55;;;;;;;32.88;13.63;;;;;;;;;;4916535;29;20124;-76
2023/12/05 06:26:25;;;;;;;48.97;16.98;;;;;;;;;;4914486;29;20052;-77
2023/12/05 06:28:54;;;;;;;37.55;14.02;;;;;;;;;;4928464;28;20032;-76
2023/12/05 06:31:26;;;;;;;40.50;14.30;;;;;;;;;;4918480;29;20088;-78
2023/12/05 06:33:55;;;;;;;37.50;12.80;;;;;;;;;;4919651;29;20037;-76
2023/12/05 06:36:24;;;;;;;30.63;11.82;;;;;;;;;;4920435;29;20059;-76
2023/12/05 06:38:56;;;;;;;23.48;9.65;;;;;;;;;;4937636;28;20124;-77
2023/12/05 06:41:26;;;;;;;32.00;12.73;;;;;;;;;;4902118;29;20071;-77
2023/12/05 06:43:56;;;;;;;28.77;12.07;;;;;;;;;;4911059;29;20066;-77
2023/12/05 06:46:26;;;;;;;34.42;12.20;;;;;;;;;;4909317;28;20040;-77
2023/12/05 06:48:56;;;;;;;36.45;12.80;;;;;;;;;;4913462;28;20068;-76
2023/12/05 06:51:25;;;;;;;33.25;13.55;;;;;;;;;;4903173;29;20123;-77
2023/12/05 06:53:54;;;;;;;33.92;13.40;;;;;;;;;;4924354;28;20048;-78
2023/12/05 06:56:23;;;;;;;31.27;11.75;;;;;;;;;;4935273;29;20048;-78
2023/12/05 06:58:52;;;;;;;29.70;11.77;;;;;;;;;;4911877;29;20060;-77
2023/12/05 07:01:21;;;;;;;27.35;11.82;;;;;;;;;;4912051;29;20056;-78
2023/12/05 07:03:52;;;;;;;31.40;12.82;;;;;;;;;;4917476;29;20170;-78
2023/12/05 07:06:25;;;;;;;29.77;11.55;;;;;;;;;;4911225;29;20036;-78
2023/12/05 07:08:54;;;;;;;34.17;13.10;;;;;;;;;;4909694;28;20044;-79
2023/12/05 07:11:26;;;;;;;36.95;15.18;;;;;;;;;;4917939;28;20048;-78
2023/12/05 07:13:56;;;;;;;34.40;12.95;;;;;;;;;;4910981;29;20036;-78
2023/12/05 07:16:25;;;;;;;33.15;13.75;;;;;;;;;;4917101;29;20068;-78
2023/12/05 07:18:56;;;;;;;29.13;11.43;;;;;;;;;;4917216;29;20040;-79
2023/12/05 07:21:25;;;;;;;33.33;12.57;;;;;;;;;;4910706;28;20059;-79
2023/12/05 07:23:54;;;;;;;31.48;13.13;;;;;;;;;;4909197;29;20032;-79
2023/12/05 07:26:29;;;;;;;27.58;11.73;;;;;;;;;;4909422;28;20043;-79
2023/12/05 07:29:00;;;;;;;36.05;13.45;;;;;;;;;;4910974;29;20125;-79
2023/12/05 07:31:29;;;;;;;32.67;13.80;;;;;;;;;;4922110;28;20075;-78
2023/12/05 07:33:59;;;;;;;36.42;14.10;;;;;;;;;;4910232;29;20094;-78
2023/12/05 07:36:29;;;;;;;29.23;11.43;;;;;;;;;;4910693;29;20036;-79
2023/12/05 07:39:01;;;;;;;36.83;13.32;;;;;;;;;;4910176;28;20079;-78
2023/12/05 07:41:30;;;;;;;29.95;12.52;;;;;;;;;;4900537;29;20095;-78
2023/12/05 07:43:59;;;;;;;30.95;12.52;;;;;;;;;;4930551;28;20031;-78
2023/12/05 07:46:30;;;;;;;35.35;12.80;;;;;;;;;;4909877;29;20063;-78
2023/12/05 07:49:02;;;;;;;31.80;14.30;;;;;;;;;;4903663;29;20044;-78
2023/12/05 07:51:31;;;;;;;23.52;10.57;;;;;;;;;;4911812;28;20048;-80
2023/12/05 07:54:00;;;;;;;32.20;12.00;;;;;;;;;;4928768;29;20037;-82
2023/12/05 07:56:29;;;;;;;33.05;13.68;;;;;;;;;;4911839;29;20039;-78
2023/12/05 07:58:58;;;;;;;32.70;13.15;;;;;;;;;;4924200;29;20028;-78
2023/12/05 08:01:28;;;;;;;31.35;13.38;;;;;;;;;;4909810;29;20043;-78
2023/12/05 08:03:57;;;;;;;32.50;13.73;;;;;;;;;;4909796;29;20036;-78
2023/12/05 08:06:28;;;;;;;33.35;13.95;;;;;;;;;;4910664;29;20159;-78
2023/12/05 08:08:59;;;;;;;37.00;13.65;;;;;;;;;;4912387;29;21924;-79
2023/12/05 08:11:31;;;;;;;33.53;13.73;;;;;;;;;;4921159;28;20364;-78
2023/12/05 08:14:01;;;;;;;28.20;11.77;;;;;;;;;;4914314;29;20154;-78
2023/12/05 08:16:30;;;;;;;33.35;12.93;;;;;;;;;;4919619;29;20052;-79
2023/12/05 08:18:59;;;;;;;27.38;11.68;;;;;;;;;;4925283;29;20028;-81
2023/12/05 08:21:30;;;;;;;29.42;12.52;;;;;;;;;;4906547;29;20048;-78
2023/12/05 08:23:59;;;;;;;25.55;9.80;;;;;;;;;;4910700;29;20119;-78
2023/12/05 08:26:29;;;;;;;27.88;12.38;;;;;;;;;;4913346;29;20072;-78
2023/12/05 08:28:59;;;;;;;34.47;12.27;;;;;;;;;;4918913;28;20044;-79
2023/12/05 08:31:28;;;;;;;28.52;11.52;;;;;;;;;;4918451;28;20058;-78
2023/12/05 08:33:58;;;;;;;30.30;12.13;;;;;;;;;;4927560;28;20112;-79
2023/12/05 08:36:28;;;;;;;29.05;12.10;;;;;;;;;;4902487;29;20036;-78
2023/12/05 08:38:58;;;;;;;28.98;11.85;;;;;;;;;;4924271;28;20124;-77
2023/12/05 08:41:27;;;;;;;26.98;11.45;;;;;;;;;;4926784;28;20076;-78
2023/12/05 08:43:59;;;;;;;30.63;11.55;;;;;;;;;;4928988;28;20060;-79
2023/12/05 08:46:29;;;;;;;34.10;12.75;;;;;;;;;;4922732;29;20045;-78
2023/12/05 08:48:58;;;;;;;29.92;12.98;;;;;;;;;;4919356;29;20049;-78
2023/12/05 08:51:27;;;;;;;24.73;10.45;;;;;;;;;;4920755;29;20036;-78
2023/12/05 08:54:00;;;;;;;32.25;12.00;;;;;;;;;;4907583;29;20048;-78
2023/12/05 08:56:30;;;;;;;28.08;12.63;;;;;;;;;;4896936;29;20059;-77
2023/12/05 08:59:00;;;;;;;30.25;11.00;;;;;;;;;;4927145;29;20029;-80
2023/12/05 09:01:29;;;;;;;32.45;13.57;;;;;;;;;;4926041;29;20056;-78
2023/12/05 09:03:58;;;;;;;35.75;13.70;;;;;;;;;;4913026;28;22016;-79
2023/12/05 09:06:27;;;;;;;31.45;12.77;;;;;;;;;;4915273;28;20108;-78
2023/12/05 09:08:58;;;;;;;29.30;13.75;;;;;;;;;;4903130;29;20040;-78
2023/12/05 09:11:27;;;;;;;31.02;13.10;;;;;;;;;;4911422;29;20053;-78
2023/12/05 09:13:59;;;;;;;37.13;14.85;;;;;;;;;;4912135;28;20048;-78
2023/12/05 09:16:28;;;;;;;21.45;9.40;;;;;;;;;;4916691;29;20063;-79
2023/12/05 09:18:58;;;;;;;30.58;12.38;;;;;;;;;;4914977;29;20074;-78
2023/12/05 09:21:27;;;;;;;27.67;10.27;;;;;;;;;;4920380;29;20047;-80
2023/12/05 09:23:56;;;;;;;29.40;12.30;;;;;;;;;;4920187;29;20043;-78
2023/12/05 09:26:25;;;;;;;27.13;11.27;;;;;;;;;;4912055;29;20040;-80
2023/12/05 09:29:06;;;;;;;34.45;13.75;;;;;;;;;;5951928;23;20023;31
2023/12/05 09:31:37;;;;;;;35.47;13.30;;;;;;;;;;4869115;29;20049;-80
2023/12/05 09:34:06;;;;;;;32.40;11.77;;;;;;;;;;4855185;29;20053;-78
2023/12/05 09:36:40;;;;;;;30.05;11.75;;;;;;;;;;4856529;29;21859;-79
2023/12/05 09:39:16;;;;;;;29.92;13.38;;;;;;;;;;4855722;29;21975;-80
2023/12/05 09:41:54;;;;;;;31.65;12.77;;;;;;;;;;4873199;29;20196;-79
2023/12/05 09:44:24;;;;;;;31.92;12.32;;;;;;;;;;4862779;29;20057;-78
2023/12/05 09:47:07;;;;;;;26.85;11.88;;;;;;;;;;4855775;29;21822;-80
2023/12/05 09:49:44;;;;;;;34.95;14.13;;;;;;;;;;4863370;29;20050;-78
2023/12/05 09:52:13;;;;;;;31.48;12.93;;;;;;;;;;4867520;29;20086;-79
2023/12/05 09:54:43;;;;;;;35.03;14.30;;;;;;;;;;4855938;29;20052;-79
2023/12/05 09:57:13;;;;;;;32.83;15.00;;;;;;;;;;4855561;29;20057;-78
2023/12/05 09:59:42;;;;;;;29.30;12.88;;;;;;;;;;4853025;29;20046;-78
2023/12/05 10:02:15;;;;;;;29.30;13.00;;;;;;;;;;4853295;29;22060;-78
2023/12/05 10:04:45;;;;;;;31.02;11.98;;;;;;;;;;4876510;29;20053;-79
2023/12/05 10:07:15;;;;;;;28.70;13.27;;;;;;;;;;4866004;29;20049;-78
2023/12/05 10:09:44;;;;;;;23.80;11.10;;;;;;;;;;4859659;29;20049;-79
2023/12/05 10:12:14;;;;;;;28.13;11.57;;;;;;;;;;4849410;29;20109;-79
2023/12/05 10:14:45;;;;;;;30.65;13.55;;;;;;;;;;4867803;29;20081;-78
2023/12/05 10:17:16;;;;;;;31.60;12.95;;;;;;;;;;4850596;29;20049;-78
2023/12/05 10:19:45;;;;;;;28.90;12.75;;;;;;;;;;4853253;29;20053;-79
2023/12/05 10:22:14;;;;;;;32.40;13.45;;;;;;;;;;4852795;29;20045;-79
2023/12/05 10:24:44;;;;;;;33.97;12.95;;;;;;;;;;4853739;29;20041;-78
2023/12/05 10:27:13;;;;;;;29.90;12.27;;;;;;;;;;4845104;29;20076;-77
2023/12/05 10:29:44;;;;;;;27.23;11.75;;;;;;;;;;4851567;29;20585;-78
2023/12/05 10:32:17;;;;;;;28.60;13.18;;;;;;;;;;4867366;29;20042;-78
2023/12/05 10:34:51;;;;;;;29.85;12.40;;;;;;;;;;4854854;29;20037;-78
2023/12/05 10:37:23;;;;;;;28.23;11.88;;;;;;;;;;4851460;29;20242;-78
2023/12/05 10:39:52;;;;;;;27.48;11.63;;;;;;;;;;4849088;29;20680;-78
2023/12/05 10:42:23;;;;;;;29.65;11.73;;;;;;;;;;4849700;29;20042;-78
2023/12/05 10:44:52;;;;;;;30.15;12.18;;;;;;;;;;5115816;23;20067;-78
2023/12/05 10:47:22;;;;;;;29.83;13.40;;;;;;;;;;4930780;29;20044;-78
2023/12/05 10:49:53;;;;;;;34.33;14.02;;;;;;;;;;4933099;28;20052;-79
2023/12/05 10:52:23;;;;;;;30.95;12.48;;;;;;;;;;4928049;28;20062;-78
2023/12/05 10:54:56;;;;;;;33.35;13.65;;;;;;;;;;4943107;28;20055;-77
2023/12/05 10:57:32;;;;;;;28.92;12.05;;;;;;;;;;4926074;29;20040;-78
2023/12/05 11:00:05;;;;;;;33.70;13.32;;;;;;;;;;4927343;28;20824;-78
2023/12/05 11:02:35;;;;;;;37.92;13.32;;;;;;;;;;4915735;29;20052;-77
2023/12/05 11:05:06;;;;;;;31.45;13.45;;;;;;;;;;4922453;29;20411;-78
2023/12/05 11:07:36;;;;;;;33.85;14.20;;;;;;;;;;4927936;28;20046;-78
2023/12/05 11:10:05;;;;;;;37.83;14.82;;;;;;;;;;4939721;29;20051;-78
2023/12/05 11:12:35;;;;;;;32.63;14.45;;;;;;;;;;4917580;29;20075;-77
2023/12/05 11:15:05;;;;;;;28.40;13.02;;;;;;;;;;4924194;29;20067;-77
2023/12/05 11:17:37;;;;;;;32.95;13.75;;;;;;;;;;4922695;29;20043;-78
2023/12/05 11:20:18;;;;;;;33.80;13.13;;;;;;;;;;4921103;28;20052;-78
2023/12/05 11:22:57;;;;;;;32.08;12.73;;;;;;;;;;4934578;29;20055;-79
2023/12/05 11:25:36;;;;;;;31.58;13.55;;;;;;;;;;4927197;29;22943;-78
2023/12/05 11:28:15;;;;;;;34.72;15.18;;;;;;;;;;4939522;28;20107;-77
2023/12/05 11:31:05;;;;;;;33.88;13.30;;;;;;;;;;4926737;29;20051;-74
2023/12/05 11:33:54;;;;;;;37.53;14.00;;;;;;;;;;4944576;29;20098;-74
2023/12/05 11:36:29;;;;;;;35.03;15.48;;;;;;;;;;4890182;29;20048;-75
2023/12/05 11:39:00;;;;;;;30.80;14.20;;;;;;;;;;4936522;29;20058;-74
2023/12/05 11:41:33;;;;;;;34.25;14.18;;;;;;;;;;4931694;28;20111;-74
2023/12/05 11:44:21;;;;;;;33.70;14.32;;;;;;;;;;4958002;28;20060;-74
2023/12/05 11:47:00;;;;;;;34.88;14.18;;;;;;;;;;4922031;29;20071;-75
2023/12/05 11:49:49;;;;;;;37.65;15.10;;;;;;;;;;4916343;29;20511;-74
2023/12/05 11:52:22;;;;;;;34.88;14.45;;;;;;;;;;4924681;29;20106;-75
2023/12/05 11:54:54;;;;;;;37.22;13.57;;;;;;;;;;4915479;29;20414;-74
2023/12/05 11:57:33;;;;;;;35.22;14.13;;;;;;;;;;4938466;29;20064;-74
2023/12/05 12:00:18;;;;;;;31.33;14.60;;;;;;;;;;4925165;29;20090;-75
2023/12/05 12:02:50;;;;;;;31.45;13.45;;;;;;;;;;4932621;28;20114;-74
2023/12/05 12:05:23;;;;;;;37.60;15.68;;;;;;;;;;4946020;28;20107;-75
2023/12/05 12:08:00;;;;;;;30.38;12.93;;;;;;;;;;4916217;29;20198;-75
2023/12/05 12:10:33;;;;;;;27.58;12.80;;;;;;;;;;4937729;28;20473;-75
2023/12/05 12:13:04;;;;;;;38.28;16.15;;;;;;;;;;4921577;29;20071;-75
2023/12/05 12:15:36;;;;;;;35.25;14.48;;;;;;;;;;4912709;29;20054;-75
2023/12/05 12:18:05;;;;;;;39.55;16.52;;;;;;;;;;4921585;29;20056;-74
2023/12/05 12:20:35;;;;;;;38.65;17.05;;;;;;;;;;4922441;29;20058;-75
2023/12/05 12:23:06;;;;;;;91.63;42.55;;;;;;;;;;4942730;28;20468;-75
2023/12/05 12:25:50;;;;;;;76.00;39.72;;;;;;;;;;4916174;29;20403;-75
2023/12/05 12:28:28;;;;;;;44.70;19.13;;;;;;;;;;4904956;29;20051;-74
2023/12/05 12:31:00;;;;;;;44.40;18.38;;;;;;;;;;4912751;29;20048;-75
2023/12/05 12:33:37;;;;;;;39.75;16.80;;;;;;;;;;4938781;29;20389;-74
2023/12/05 12:36:07;;;;;;;43.03;18.40;;;;;;;;;;4925441;29;20069;-74
2023/12/05 12:38:39;;;;;;;43.95;16.88;;;;;;;;;;4917144;29;20522;-74
2023/12/05 12:41:09;;;;;;;40.50;16.58;;;;;;;;;;4912624;29;20051;-78
2023/12/05 12:43:40;;;;;;;43.55;18.15;;;;;;;;;;4910247;29;20087;-78
2023/12/05 12:46:08;;;;;;;45.13;19.02;;;;;;;;;;4926435;29;20243;-79
2023/12/05 12:48:37;;;;;;;42.90;17.10;;;;;;;;;;4931629;29;21817;-78
2023/12/05 12:51:07;;;;;;;41.38;17.40;;;;;;;;;;4933336;29;20128;-80
2023/12/05 12:53:36;;;;;;;46.35;18.02;;;;;;;;;;4919605;29;20079;-77
2023/12/05 12:56:09;;;;;;;42.33;15.70;;;;;;;;;;4925021;29;20067;-78
2023/12/05 12:58:40;;;;;;;58.45;21.33;;;;;;;;;;4910667;29;20039;-78
2023/12/05 13:01:11;;;;;;;65.45;21.90;;;;;;;;;;4945880;28;20063;-78
2023/12/05 13:03:44;;;;;;;55.40;20.47;;;;;;;;;;4920371;29;20051;-78
2023/12/05 13:06:14;;;;;;;46.45;19.42;;;;;;;;;;4920681;29;20464;-79
2023/12/05 13:08:42;;;;;;;48.45;18.02;;;;;;;;;;4935420;28;21419;-78
2023/12/05 13:11:13;;;;;;;43.75;18.20;;;;;;;;;;4926404;29;20190;-78
2023/12/05 13:13:41;;;;;;;44.13;18.77;;;;;;;;;;4919674;29;20047;-79
2023/12/05 13:16:11;;;;;;;46.83;18.55;;;;;;;;;;4925515;29;20048;-78
2023/12/05 13:18:44;;;;;;;45.85;19.20;;;;;;;;;;4928188;29;20147;-79
2023/12/05 13:21:13;;;;;;;47.05;20.55;;;;;;;;;;4928883;29;20083;-78
2023/12/05 13:23:43;;;;;;;44.60;17.95;;;;;;;;;;4933735;28;20039;-79
2023/12/05 13:26:16;;;;;;;42.72;19.48;;;;;;;;;;4924693;29;20057;-79
2023/12/05 13:28:50;;;;;;;53.20;18.42;;;;;;;;;;4921949;29;20109;-79
2023/12/05 13:31:23;;;;;;;48.80;19.50;;;;;;;;;;4909381;29;20043;-78
2023/12/05 13:33:51;;;;;;;47.22;19.27;;;;;;;;;;4932934;28;20087;-79
2023/12/05 13:36:22;;;;;;;47.63;19.65;;;;;;;;;;4906138;29;20056;-79
2023/12/05 13:38:53;;;;;;;101.22;37.95;;;;;;;;;;4907498;29;20082;-77
2023/12/05 13:41:24;;;;;;;61.17;24.90;;;;;;;;;;4920984;29;20040;-78
2023/12/05 13:43:53;;;;;;;57.13;23.27;;;;;;;;;;4960349;28;20059;-78
2023/12/05 13:46:23;;;;;;;57.33;22.83;;;;;;;;;;4906613;29;20242;-78
2023/12/05 13:49:00;;;;;;;51.85;22.30;;;;;;;;;;4908835;29;21997;-79
2023/12/05 13:51:30;;;;;;;57.20;22.17;;;;;;;;;;4917308;29;20043;-79
2023/12/05 13:53:59;;;;;;;56.85;19.63;;;;;;;;;;4919468;29;20071;-79
2023/12/05 13:56:30;;;;;;;49.65;19.83;;;;;;;;;;4918118;29;20055;-78
2023/12/05 13:59:00;;;;;;;49.50;20.02;;;;;;;;;;4918941;29;20054;-78
2023/12/05 14:01:29;;;;;;;53.33;20.85;;;;;;;;;;4916939;29;20062;-78
2023/12/05 14:03:59;;;;;;;56.80;24.02;;;;;;;;;;4931403;28;20134;-80
2023/12/05 14:06:28;;;;;;;51.13;20.10;;;;;;;;;;4926560;29;20048;-78
2023/12/05 14:08:59;;;;;;;45.80;18.52;;;;;;;;;;4924094;29;20127;-77
2023/12/05 14:11:28;;;;;;;42.28;17.42;;;;;;;;;;4907487;29;22135;-78
2023/12/05 14:13:59;;;;;;;45.25;18.60;;;;;;;;;;4926427;29;20178;-81
2023/12/05 14:16:28;;;;;;;64.68;25.98;;;;;;;;;;4924638;29;20054;-78
2023/12/05 14:18:56;;;;;;;48.60;19.90;;;;;;;;;;4922945;29;20128;-78
2023/12/05 14:21:26;;;;;;;50.60;21.65;;;;;;;;;;4918093;29;20146;-78
2023/12/05 14:23:55;;;;;;;45.15;18.58;;;;;;;;;;4923606;29;20212;-78
2023/12/05 14:26:24;;;;;;;51.75;21.77;;;;;;;;;;4918550;29;20119;-79
2023/12/05 14:28:53;;;;;;;48.65;19.23;;;;;;;;;;4916294;29;22003;-78
2023/12/05 14:31:25;;;;;;;46.45;19.45;;;;;;;;;;4930377;28;20124;-81
2023/12/05 14:33:54;;;;;;;49.85;20.48;;;;;;;;;;4922966;29;22265;-78
2023/12/05 14:36:23;;;;;;;50.60;22.08;;;;;;;;;;4923560;29;20044;-77
2023/12/05 14:38:52;;;;;;;52.20;21.30;;;;;;;;;;4917796;29;20099;-78
2023/12/05 14:41:35;;;;;;;46.90;18.38;;;;;;;;;;4918311;29;20066;-78